EGNR/CEG METAR and TAF weather

Enter ICAO airport designator
Station Type Date Time Source
EGNR METAR 2019/06/17 06:20 UTC NOAA

EGNR 170620Z 16009KT 9999 VCSH SCT004 BKN042 12/11 Q1013


Station Type Date Time Source
EGNR Decoded METAR 2019/06/17 06:20 UTC NOAA

Hawarden, United Kingdom (EGNR) 53-10N 002-59W 0M
Jun 17, 2019 - 02:20 AM EDT / 2019.06.17 0620 UTC
Wind: from the SSE (160 degrees) at 10 MPH (9 KT):0
Visibility: greater than 7 mile(s):0
Sky conditions: mostly cloudy
Weather: showers in the vicinity
Temperature: 53 F (12 C)
Dew Point: 51 F (11 C)
Relative Humidity: 93%
Pressure (altimeter): 29.91 in. Hg (1013 hPa)
ob: EGNR 170620Z 16009KT 9999 VCSH SCT004 BKN042 12/11 Q1013
cycle: 6

Station Type Date Time Source
EGNR TAF 2016/01/23 12:00 UTC NOAA

TAF EGNR 231059Z 2312/2319 15009KT 9999 FEW020
BECMG 2316/2319 BKN014
TEMPO 2317/2319 6000 RA BKN008

Example: see airport list